sensor_id;sensor_type;location;lat;lon;timestamp;P1;durP1;ratioP1;P2;durP2;ratioP2
66487;SDS011;53304;54.550;18.526;2023-02-23T00:02:00;6.38;;;3.33;;
66487;SDS011;53304;54.550;18.526;2023-02-23T00:04:30;7.80;;;3.00;;
66487;SDS011;53304;54.550;18.526;2023-02-23T00:07:01;6.15;;;3.40;;
66487;SDS011;53304;54.550;18.526;2023-02-23T00:09:28;7.63;;;3.30;;
66487;SDS011;53304;54.550;18.526;2023-02-23T00:11:59;6.38;;;3.08;;
66487;SDS011;53304;54.550;18.526;2023-02-23T00:14:31;6.72;;;3.28;;
66487;SDS011;53304;54.550;18.526;2023-02-23T00:16:58;6.60;;;2.90;;
66487;SDS011;53304;54.550;18.526;2023-02-23T00:19:26;5.63;;;3.00;;
66487;SDS011;53304;54.550;18.526;2023-02-23T00:21:52;7.43;;;3.15;;
66487;SDS011;53304;54.550;18.526;2023-02-23T00:24:22;6.65;;;3.13;;
66487;SDS011;53304;54.550;18.526;2023-02-23T00:26:51;5.97;;;3.15;;
66487;SDS011;53304;54.550;18.526;2023-02-23T00:29:19;5.65;;;3.38;;
66487;SDS011;53304;54.550;18.526;2023-02-23T00:31:46;5.43;;;3.00;;
66487;SDS011;53304;54.550;18.526;2023-02-23T00:34:13;6.28;;;3.30;;
66487;SDS011;53304;54.550;18.526;2023-02-23T00:36:44;5.18;;;3.13;;
66487;SDS011;53304;54.550;18.526;2023-02-23T00:39:10;7.00;;;3.28;;
66487;SDS011;53304;54.550;18.526;2023-02-23T00:41:46;5.43;;;3.30;;
66487;SDS011;53304;54.550;18.526;2023-02-23T00:44:16;5.38;;;3.22;;
66487;SDS011;53304;54.550;18.526;2023-02-23T00:46:42;5.63;;;3.42;;
66487;SDS011;53304;54.550;18.526;2023-02-23T00:49:08;6.00;;;3.50;;
66487;SDS011;53304;54.550;18.526;2023-02-23T00:51:37;7.00;;;3.42;;
66487;SDS011;53304;54.550;18.526;2023-02-23T00:54:03;5.88;;;3.20;;
66487;SDS011;53304;54.550;18.526;2023-02-23T00:56:31;6.45;;;3.60;;
66487;SDS011;53304;54.550;18.526;2023-02-23T00:58:57;6.53;;;3.67;;
66487;SDS011;53304;54.550;18.526;2023-02-23T01:01:22;7.13;;;3.63;;
66487;SDS011;53304;54.550;18.526;2023-02-23T01:03:51;7.07;;;3.42;;
66487;SDS011;53304;54.550;18.526;2023-02-23T01:06:19;9.40;;;3.85;;
66487;SDS011;53304;54.550;18.526;2023-02-23T01:08:46;6.43;;;3.33;;
66487;SDS011;53304;54.550;18.526;2023-02-23T01:11:17;7.10;;;3.45;;
66487;SDS011;53304;54.550;18.526;2023-02-23T01:13:48;7.38;;;3.88;;
66487;SDS011;53304;54.550;18.526;2023-02-23T01:16:17;6.40;;;3.47;;
66487;SDS011;53304;54.550;18.526;2023-02-23T01:18:45;6.30;;;3.47;;
66487;SDS011;53304;54.550;18.526;2023-02-23T01:21:14;7.85;;;3.40;;
66487;SDS011;53304;54.550;18.526;2023-02-23T01:23:40;7.70;;;3.70;;
66487;SDS011;53304;54.550;18.526;2023-02-23T01:26:14;6.30;;;3.67;;
66487;SDS011;53304;54.550;18.526;2023-02-23T01:28:50;6.13;;;3.67;;
66487;SDS011;53304;54.550;18.526;2023-02-23T01:31:16;7.30;;;3.70;;
66487;SDS011;53304;54.550;18.526;2023-02-23T01:33:42;6.40;;;3.65;;
66487;SDS011;53304;54.550;18.526;2023-02-23T01:36:12;6.10;;;3.38;;
66487;SDS011;53304;54.550;18.526;2023-02-23T01:38:40;6.28;;;3.58;;
66487;SDS011;53304;54.550;18.526;2023-02-23T01:41:06;6.30;;;3.53;;
66487;SDS011;53304;54.550;18.526;2023-02-23T01:43:33;6.57;;;3.65;;
66487;SDS011;53304;54.550;18.526;2023-02-23T01:45:59;6.57;;;3.47;;
66487;SDS011;53304;54.550;18.526;2023-02-23T01:48:35;7.75;;;3.70;;
66487;SDS011;53304;54.550;18.526;2023-02-23T01:51:09;8.20;;;3.90;;
66487;SDS011;53304;54.550;18.526;2023-02-23T01:53:41;6.53;;;3.53;;
66487;SDS011;53304;54.550;18.526;2023-02-23T01:56:16;6.00;;;3.47;;
66487;SDS011;53304;54.550;18.526;2023-02-23T01:58:45;7.22;;;3.70;;
66487;SDS011;53304;54.550;18.526;2023-02-23T02:01:28;6.10;;;3.20;;
66487;SDS011;53304;54.550;18.526;2023-02-23T02:03:57;7.65;;;4.10;;
66487;SDS011;53304;54.550;18.526;2023-02-23T02:06:25;7.30;;;3.78;;
66487;SDS011;53304;54.550;18.526;2023-02-23T02:08:58;8.30;;;4.00;;
66487;SDS011;53304;54.550;18.526;2023-02-23T02:11:35;7.60;;;3.67;;
66487;SDS011;53304;54.550;18.526;2023-02-23T02:16:41;6.43;;;3.67;;
66487;SDS011;53304;54.550;18.526;2023-02-23T02:30:54;7.18;;;3.63;;
66487;SDS011;53304;54.550;18.526;2023-02-23T02:37:06;7.18;;;3.85;;
66487;SDS011;53304;54.550;18.526;2023-02-23T02:44:54;7.78;;;4.50;;
66487;SDS011;53304;54.550;18.526;2023-02-23T02:47:25;7.50;;;4.28;;
66487;SDS011;53304;54.550;18.526;2023-02-23T02:52:40;6.47;;;3.92;;
66487;SDS011;53304;54.550;18.526;2023-02-23T02:55:14;9.57;;;4.22;;
66487;SDS011;53304;54.550;18.526;2023-02-23T02:57:45;8.73;;;4.25;;
66487;SDS011;53304;54.550;18.526;2023-02-23T03:00:14;7.43;;;4.15;;
66487;SDS011;53304;54.550;18.526;2023-02-23T03:03:01;7.10;;;4.10;;
66487;SDS011;53304;54.550;18.526;2023-02-23T03:05:48;8.52;;;4.68;;
66487;SDS011;53304;54.550;18.526;2023-02-23T03:11:22;7.20;;;4.00;;
66487;SDS011;53304;54.550;18.526;2023-02-23T03:20:27;7.65;;;4.28;;
66487;SDS011;53304;54.550;18.526;2023-02-23T03:23:24;7.25;;;3.78;;
66487;SDS011;53304;54.550;18.526;2023-02-23T03:26:11;8.60;;;4.30;;
66487;SDS011;53304;54.550;18.526;2023-02-23T03:31:50;6.93;;;4.03;;
66487;SDS011;53304;54.550;18.526;2023-02-23T03:34:45;7.82;;;4.20;;
66487;SDS011;53304;54.550;18.526;2023-02-23T03:37:44;7.10;;;4.00;;
66487;SDS011;53304;54.550;18.526;2023-02-23T03:40:33;7.30;;;3.92;;
66487;SDS011;53304;54.550;18.526;2023-02-23T03:43:22;7.60;;;4.05;;
66487;SDS011;53304;54.550;18.526;2023-02-23T03:46:09;9.95;;;4.45;;
66487;SDS011;53304;54.550;18.526;2023-02-23T03:48:58;7.28;;;3.83;;
66487;SDS011;53304;54.550;18.526;2023-02-23T03:51:46;9.10;;;3.95;;
66487;SDS011;53304;54.550;18.526;2023-02-23T03:54:53;7.72;;;4.45;;
66487;SDS011;53304;54.550;18.526;2023-02-23T03:57:40;8.45;;;4.22;;
66487;SDS011;53304;54.550;18.526;2023-02-23T04:00:29;7.43;;;4.40;;
66487;SDS011;53304;54.550;18.526;2023-02-23T04:03:15;7.25;;;3.97;;
66487;SDS011;53304;54.550;18.526;2023-02-23T04:06:00;8.20;;;3.75;;
66487;SDS011;53304;54.550;18.526;2023-02-23T04:08:47;10.20;;;4.20;;
66487;SDS011;53304;54.550;18.526;2023-02-23T04:14:38;8.02;;;3.83;;
66487;SDS011;53304;54.550;18.526;2023-02-23T04:17:10;8.38;;;3.85;;
66487;SDS011;53304;54.550;18.526;2023-02-23T04:19:36;8.30;;;4.05;;
66487;SDS011;53304;54.550;18.526;2023-02-23T04:22:04;7.47;;;3.80;;
66487;SDS011;53304;54.550;18.526;2023-02-23T04:24:29;8.15;;;3.83;;
66487;SDS011;53304;54.550;18.526;2023-02-23T04:26:57;8.23;;;4.10;;
66487;SDS011;53304;54.550;18.526;2023-02-23T04:29:26;8.88;;;3.72;;
66487;SDS011;53304;54.550;18.526;2023-02-23T04:31:57;7.90;;;3.90;;
66487;SDS011;53304;54.550;18.526;2023-02-23T04:34:22;7.18;;;3.92;;
66487;SDS011;53304;54.550;18.526;2023-02-23T04:36:47;6.72;;;3.70;;
66487;SDS011;53304;54.550;18.526;2023-02-23T04:39:17;6.95;;;3.83;;
66487;SDS011;53304;54.550;18.526;2023-02-23T04:41:43;7.38;;;3.78;;
66487;SDS011;53304;54.550;18.526;2023-02-23T04:44:08;6.63;;;3.80;;
66487;SDS011;53304;54.550;18.526;2023-02-23T04:46:33;7.63;;;3.80;;
66487;SDS011;53304;54.550;18.526;2023-02-23T04:48:59;7.22;;;3.78;;
66487;SDS011;53304;54.550;18.526;2023-02-23T04:51:24;6.22;;;3.83;;
66487;SDS011;53304;54.550;18.526;2023-02-23T04:53:56;7.03;;;3.75;;
66487;SDS011;53304;54.550;18.526;2023-02-23T04:56:22;8.27;;;3.88;;
66487;SDS011;53304;54.550;18.526;2023-02-23T04:58:47;7.20;;;3.58;;
66487;SDS011;53304;54.550;18.526;2023-02-23T05:01:13;6.82;;;3.53;;
66487;SDS011;53304;54.550;18.526;2023-02-23T05:03:43;6.18;;;3.60;;
66487;SDS011;53304;54.550;18.526;2023-02-23T05:06:09;8.02;;;3.80;;
66487;SDS011;53304;54.550;18.526;2023-02-23T05:08:37;7.75;;;3.67;;
66487;SDS011;53304;54.550;18.526;2023-02-23T05:11:06;6.20;;;3.42;;
66487;SDS011;53304;54.550;18.526;2023-02-23T05:13:32;7.22;;;3.75;;
66487;SDS011;53304;54.550;18.526;2023-02-23T05:16:00;7.10;;;3.90;;
66487;SDS011;53304;54.550;18.526;2023-02-23T05:18:25;6.68;;;3.60;;
66487;SDS011;53304;54.550;18.526;2023-02-23T05:20:59;6.63;;;3.40;;
66487;SDS011;53304;54.550;18.526;2023-02-23T05:23:26;7.53;;;3.50;;
66487;SDS011;53304;54.550;18.526;2023-02-23T05:25:51;6.68;;;3.78;;
66487;SDS011;53304;54.550;18.526;2023-02-23T05:28:16;6.55;;;3.63;;
66487;SDS011;53304;54.550;18.526;2023-02-23T05:30:44;7.10;;;3.58;;
66487;SDS011;53304;54.550;18.526;2023-02-23T05:33:10;6.57;;;3.50;;
66487;SDS011;53304;54.550;18.526;2023-02-23T05:35:38;5.85;;;3.22;;
66487;SDS011;53304;54.550;18.526;2023-02-23T05:38:06;10.20;;;3.42;;
66487;SDS011;53304;54.550;18.526;2023-02-23T05:40:32;6.45;;;3.40;;
66487;SDS011;53304;54.550;18.526;2023-02-23T05:42:58;7.65;;;3.38;;
66487;SDS011;53304;54.550;18.526;2023-02-23T05:45:24;6.55;;;3.50;;
66487;SDS011;53304;54.550;18.526;2023-02-23T05:47:49;6.28;;;3.38;;
66487;SDS011;53304;54.550;18.526;2023-02-23T05:50:17;6.55;;;3.20;;
66487;SDS011;53304;54.550;18.526;2023-02-23T05:52:43;6.63;;;3.40;;
66487;SDS011;53304;54.550;18.526;2023-02-23T05:55:11;6.38;;;3.35;;
66487;SDS011;53304;54.550;18.526;2023-02-23T05:57:37;4.90;;;3.10;;
66487;SDS011;53304;54.550;18.526;2023-02-23T06:00:04;5.53;;;3.28;;
66487;SDS011;53304;54.550;18.526;2023-02-23T06:02:31;6.68;;;3.28;;
66487;SDS011;53304;54.550;18.526;2023-02-23T06:04:56;6.00;;;3.17;;
66487;SDS011;53304;54.550;18.526;2023-02-23T06:07:22;7.13;;;3.20;;
66487;SDS011;53304;54.550;18.526;2023-02-23T06:09:50;5.90;;;3.05;;
66487;SDS011;53304;54.550;18.526;2023-02-23T06:12:15;6.50;;;3.28;;
66487;SDS011;53304;54.550;18.526;2023-02-23T06:14:43;7.57;;;3.08;;
66487;SDS011;53304;54.550;18.526;2023-02-23T06:17:11;6.78;;;3.45;;
66487;SDS011;53304;54.550;18.526;2023-02-23T06:19:39;5.65;;;3.22;;
66487;SDS011;53304;54.550;18.526;2023-02-23T06:22:04;8.77;;;3.10;;
66487;SDS011;53304;54.550;18.526;2023-02-23T06:24:29;7.03;;;2.90;;
66487;SDS011;53304;54.550;18.526;2023-02-23T06:26:55;10.07;;;3.38;;
66487;SDS011;53304;54.550;18.526;2023-02-23T06:29:21;6.43;;;3.00;;
66487;SDS011;53304;54.550;18.526;2023-02-23T06:31:46;7.88;;;3.17;;
66487;SDS011;53304;54.550;18.526;2023-02-23T06:34:14;15.15;;;3.55;;
66487;SDS011;53304;54.550;18.526;2023-02-23T06:36:40;8.25;;;3.40;;
66487;SDS011;53304;54.550;18.526;2023-02-23T06:39:05;8.30;;;2.97;;
66487;SDS011;53304;54.550;18.526;2023-02-23T06:41:31;6.15;;;3.40;;
66487;SDS011;53304;54.550;18.526;2023-02-23T06:43:59;13.85;;;3.28;;
66487;SDS011;53304;54.550;18.526;2023-02-23T06:46:26;16.42;;;3.75;;
66487;SDS011;53304;54.550;18.526;2023-02-23T06:48:55;15.30;;;4.15;;
66487;SDS011;53304;54.550;18.526;2023-02-23T06:51:24;9.45;;;3.50;;
66487;SDS011;53304;54.550;18.526;2023-02-23T06:53:54;11.90;;;4.03;;
66487;SDS011;53304;54.550;18.526;2023-02-23T06:56:20;11.05;;;3.70;;
66487;SDS011;53304;54.550;18.526;2023-02-23T06:58:45;10.07;;;3.53;;
66487;SDS011;53304;54.550;18.526;2023-02-23T07:01:14;10.25;;;3.63;;
66487;SDS011;53304;54.550;18.526;2023-02-23T07:03:40;10.55;;;3.80;;
66487;SDS011;53304;54.550;18.526;2023-02-23T07:06:06;12.43;;;3.88;;
66487;SDS011;53304;54.550;18.526;2023-02-23T07:08:33;9.82;;;4.03;;
66487;SDS011;53304;54.550;18.526;2023-02-23T07:11:09;10.13;;;3.42;;
66487;SDS011;53304;54.550;18.526;2023-02-23T07:13:40;10.68;;;3.40;;
66487;SDS011;53304;54.550;18.526;2023-02-23T07:16:06;7.10;;;3.70;;
66487;SDS011;53304;54.550;18.526;2023-02-23T07:18:32;6.05;;;3.13;;
66487;SDS011;53304;54.550;18.526;2023-02-23T07:20:58;10.20;;;3.90;;
66487;SDS011;53304;54.550;18.526;2023-02-23T07:23:24;9.05;;;3.60;;
66487;SDS011;53304;54.550;18.526;2023-02-23T07:25:50;9.13;;;3.65;;
66487;SDS011;53304;54.550;18.526;2023-02-23T07:28:16;6.85;;;3.58;;
66487;SDS011;53304;54.550;18.526;2023-02-23T07:30:45;9.55;;;3.92;;
66487;SDS011;53304;54.550;18.526;2023-02-23T07:33:11;9.98;;;3.90;;
66487;SDS011;53304;54.550;18.526;2023-02-23T07:35:36;7.45;;;3.33;;
66487;SDS011;53304;54.550;18.526;2023-02-23T07:38:02;5.90;;;3.38;;
66487;SDS011;53304;54.550;18.526;2023-02-23T07:40:31;7.30;;;3.67;;
66487;SDS011;53304;54.550;18.526;2023-02-23T07:42:59;7.07;;;3.65;;
66487;SDS011;53304;54.550;18.526;2023-02-23T07:45:24;7.80;;;3.47;;
66487;SDS011;53304;54.550;18.526;2023-02-23T07:47:50;5.65;;;3.30;;
66487;SDS011;53304;54.550;18.526;2023-02-23T07:50:18;7.03;;;3.60;;
66487;SDS011;53304;54.550;18.526;2023-02-23T07:52:45;8.48;;;3.70;;
66487;SDS011;53304;54.550;18.526;2023-02-23T07:55:11;6.22;;;3.50;;
66487;SDS011;53304;54.550;18.526;2023-02-23T07:57:36;6.47;;;3.53;;
66487;SDS011;53304;54.550;18.526;2023-02-23T08:00:03;7.40;;;3.45;;
66487;SDS011;53304;54.550;18.526;2023-02-23T08:02:29;7.00;;;3.78;;
66487;SDS011;53304;54.550;18.526;2023-02-23T08:04:57;8.18;;;4.13;;
66487;SDS011;53304;54.550;18.526;2023-02-23T08:07:23;7.95;;;3.65;;
66487;SDS011;53304;54.550;18.526;2023-02-23T08:09:50;7.45;;;3.72;;
66487;SDS011;53304;54.550;18.526;2023-02-23T08:12:16;7.13;;;3.70;;
66487;SDS011;53304;54.550;18.526;2023-02-23T08:14:44;7.85;;;4.00;;
66487;SDS011;53304;54.550;18.526;2023-02-23T08:17:12;6.97;;;3.90;;
66487;SDS011;53304;54.550;18.526;2023-02-23T08:19:37;8.30;;;3.85;;
66487;SDS011;53304;54.550;18.526;2023-02-23T08:22:08;7.47;;;3.70;;
66487;SDS011;53304;54.550;18.526;2023-02-23T08:24:34;8.32;;;3.78;;
66487;SDS011;53304;54.550;18.526;2023-02-23T08:27:00;7.63;;;3.70;;
66487;SDS011;53304;54.550;18.526;2023-02-23T08:29:33;7.43;;;3.55;;
66487;SDS011;53304;54.550;18.526;2023-02-23T08:32:00;6.88;;;3.80;;
66487;SDS011;53304;54.550;18.526;2023-02-23T08:34:27;8.50;;;3.90;;
66487;SDS011;53304;54.550;18.526;2023-02-23T08:36:53;7.53;;;3.83;;
66487;SDS011;53304;54.550;18.526;2023-02-23T08:39:18;7.25;;;3.78;;
66487;SDS011;53304;54.550;18.526;2023-02-23T08:41:44;7.57;;;3.55;;
66487;SDS011;53304;54.550;18.526;2023-02-23T08:44:10;6.28;;;3.58;;
66487;SDS011;53304;54.550;18.526;2023-02-23T08:46:35;7.82;;;3.80;;
66487;SDS011;53304;54.550;18.526;2023-02-23T08:49:00;6.28;;;3.90;;
66487;SDS011;53304;54.550;18.526;2023-02-23T08:51:30;8.13;;;3.97;;
66487;SDS011;53304;54.550;18.526;2023-02-23T08:53:56;8.38;;;4.05;;
66487;SDS011;53304;54.550;18.526;2023-02-23T08:56:21;6.25;;;3.58;;
66487;SDS011;53304;54.550;18.526;2023-02-23T08:58:49;6.30;;;3.85;;
66487;SDS011;53304;54.550;18.526;2023-02-23T09:01:17;6.72;;;4.05;;
66487;SDS011;53304;54.550;18.526;2023-02-23T09:03:43;6.57;;;3.65;;
66487;SDS011;53304;54.550;18.526;2023-02-23T09:06:10;6.85;;;3.80;;
66487;SDS011;53304;54.550;18.526;2023-02-23T09:08:38;7.97;;;4.22;;
66487;SDS011;53304;54.550;18.526;2023-02-23T09:11:06;7.35;;;3.75;;
66487;SDS011;53304;54.550;18.526;2023-02-23T09:13:34;7.38;;;4.00;;
66487;SDS011;53304;54.550;18.526;2023-02-23T09:16:00;7.57;;;3.58;;
66487;SDS011;53304;54.550;18.526;2023-02-23T09:18:28;7.72;;;4.10;;
66487;SDS011;53304;54.550;18.526;2023-02-23T09:20:56;12.40;;;4.20;;
66487;SDS011;53304;54.550;18.526;2023-02-23T09:23:32;11.70;;;4.22;;
66487;SDS011;53304;54.550;18.526;2023-02-23T09:26:01;9.23;;;4.43;;
66487;SDS011;53304;54.550;18.526;2023-02-23T09:28:32;8.57;;;4.23;;
66487;SDS011;53304;54.550;18.526;2023-02-23T09:31:03;7.15;;;4.00;;
66487;SDS011;53304;54.550;18.526;2023-02-23T09:33:30;9.07;;;4.07;;
66487;SDS011;53304;54.550;18.526;2023-02-23T09:35:56;7.07;;;3.95;;
66487;SDS011;53304;54.550;18.526;2023-02-23T09:38:21;6.93;;;3.88;;
66487;SDS011;53304;54.550;18.526;2023-02-23T09:40:49;8.18;;;4.22;;
66487;SDS011;53304;54.550;18.526;2023-02-23T09:46:10;8.38;;;4.07;;
66487;SDS011;53304;54.550;18.526;2023-02-23T09:48:41;8.45;;;4.03;;
66487;SDS011;53304;54.550;18.526;2023-02-23T09:51:11;9.90;;;4.13;;
66487;SDS011;53304;54.550;18.526;2023-02-23T09:53:48;9.80;;;4.40;;
66487;SDS011;53304;54.550;18.526;2023-02-23T09:58:59;7.38;;;4.00;;
66487;SDS011;53304;54.550;18.526;2023-02-23T10:01:33;10.20;;;4.43;;
66487;SDS011;53304;54.550;18.526;2023-02-23T10:07:10;7.72;;;4.00;;
66487;SDS011;53304;54.550;18.526;2023-02-23T10:22:51;8.25;;;4.43;;
66487;SDS011;53304;54.550;18.526;2023-02-23T10:25:23;8.02;;;4.15;;
66487;SDS011;53304;54.550;18.526;2023-02-23T10:27:50;8.40;;;4.50;;
66487;SDS011;53304;54.550;18.526;2023-02-23T10:35:42;7.90;;;4.10;;
66487;SDS011;53304;54.550;18.526;2023-02-23T10:38:14;7.97;;;3.97;;
66487;SDS011;53304;54.550;18.526;2023-02-23T10:40:44;6.97;;;4.35;;
66487;SDS011;53304;54.550;18.526;2023-02-23T10:43:12;6.55;;;4.18;;
66487;SDS011;53304;54.550;18.526;2023-02-23T10:45:40;7.28;;;3.90;;
66487;SDS011;53304;54.550;18.526;2023-02-23T10:48:54;7.80;;;4.50;;
66487;SDS011;53304;54.550;18.526;2023-02-23T10:51:00;7.47;;;4.40;;
66487;SDS011;53304;54.550;18.526;2023-02-23T10:53:33;6.97;;;4.13;;
66487;SDS011;53304;54.550;18.526;2023-02-23T10:56:02;7.32;;;4.10;;
66487;SDS011;53304;54.550;18.526;2023-02-23T10:58:50;7.00;;;4.30;;
66487;SDS011;53304;54.550;18.526;2023-02-23T11:04:38;8.85;;;4.50;;
66487;SDS011;53304;54.550;18.526;2023-02-23T11:09:57;8.60;;;4.40;;
66487;SDS011;53304;54.550;18.526;2023-02-23T11:14:56;8.85;;;4.43;;
66487;SDS011;53304;54.550;18.526;2023-02-23T11:17:35;8.70;;;4.53;;
66487;SDS011;53304;54.550;18.526;2023-02-23T11:20:05;7.68;;;4.65;;
66487;SDS011;53304;54.550;18.526;2023-02-23T11:22:38;7.70;;;4.50;;
66487;SDS011;53304;54.550;18.526;2023-02-23T11:25:12;7.78;;;4.65;;
66487;SDS011;53304;54.550;18.526;2023-02-23T11:27:40;8.52;;;4.57;;
66487;SDS011;53304;54.550;18.526;2023-02-23T11:30:11;8.80;;;4.80;;
66487;SDS011;53304;54.550;18.526;2023-02-23T11:32:37;8.63;;;4.60;;
66487;SDS011;53304;54.550;18.526;2023-02-23T11:43:23;8.07;;;4.63;;
66487;SDS011;53304;54.550;18.526;2023-02-23T11:45:49;7.63;;;4.72;;
66487;SDS011;53304;54.550;18.526;2023-02-23T11:48:59;7.30;;;4.28;;
66487;SDS011;53304;54.550;18.526;2023-02-23T11:51:35;7.60;;;4.55;;
66487;SDS011;53304;54.550;18.526;2023-02-23T11:54:02;8.27;;;4.38;;
66487;SDS011;53304;54.550;18.526;2023-02-23T11:56:30;7.20;;;4.15;;
66487;SDS011;53304;54.550;18.526;2023-02-23T11:59:02;6.68;;;4.10;;
66487;SDS011;53304;54.550;18.526;2023-02-23T12:04:00;7.90;;;3.92;;
66487;SDS011;53304;54.550;18.526;2023-02-23T12:09:15;8.18;;;4.78;;
66487;SDS011;53304;54.550;18.526;2023-02-23T12:11:45;7.78;;;4.60;;
66487;SDS011;53304;54.550;18.526;2023-02-23T12:17:22;8.88;;;4.10;;
66487;SDS011;53304;54.550;18.526;2023-02-23T12:19:52;7.97;;;4.30;;
66487;SDS011;53304;54.550;18.526;2023-02-23T12:22:58;8.20;;;4.30;;
66487;SDS011;53304;54.550;18.526;2023-02-23T12:26:00;8.18;;;4.20;;
66487;SDS011;53304;54.550;18.526;2023-02-23T12:28:16;7.15;;;4.22;;
66487;SDS011;53304;54.550;18.526;2023-02-23T12:30:57;7.30;;;4.10;;
66487;SDS011;53304;54.550;18.526;2023-02-23T12:42:13;7.53;;;4.65;;
66487;SDS011;53304;54.550;18.526;2023-02-23T12:44:58;10.63;;;4.85;;
66487;SDS011;53304;54.550;18.526;2023-02-23T12:47:42;11.45;;;4.45;;
66487;SDS011;53304;54.550;18.526;2023-02-23T12:50:10;9.63;;;4.32;;
66487;SDS011;53304;54.550;18.526;2023-02-23T12:52:46;10.80;;;4.45;;
66487;SDS011;53304;54.550;18.526;2023-02-23T12:55:15;7.53;;;4.40;;
66487;SDS011;53304;54.550;18.526;2023-02-23T12:57:55;8.48;;;4.50;;
66487;SDS011;53304;54.550;18.526;2023-02-23T13:00:41;11.95;;;4.57;;
66487;SDS011;53304;54.550;18.526;2023-02-23T13:11:48;10.07;;;4.25;;
66487;SDS011;53304;54.550;18.526;2023-02-23T13:14:34;10.13;;;4.60;;
66487;SDS011;53304;54.550;18.526;2023-02-23T13:17:19;8.60;;;4.25;;
66487;SDS011;53304;54.550;18.526;2023-02-23T13:19:57;13.52;;;5.00;;
66487;SDS011;53304;54.550;18.526;2023-02-23T13:22:27;10.73;;;4.63;;
66487;SDS011;53304;54.550;18.526;2023-02-23T13:24:55;14.55;;;5.07;;
66487;SDS011;53304;54.550;18.526;2023-02-23T13:27:32;12.30;;;5.10;;
66487;SDS011;53304;54.550;18.526;2023-02-23T13:30:02;18.10;;;5.90;;
66487;SDS011;53304;54.550;18.526;2023-02-23T13:32:32;25.63;;;6.25;;
66487;SDS011;53304;54.550;18.526;2023-02-23T13:35:05;21.95;;;6.15;;
66487;SDS011;53304;54.550;18.526;2023-02-23T13:37:44;21.52;;;5.22;;
66487;SDS011;53304;54.550;18.526;2023-02-23T13:56:22;9.32;;;4.90;;
66487;SDS011;53304;54.550;18.526;2023-02-23T13:58:59;10.20;;;5.22;;
66487;SDS011;53304;54.550;18.526;2023-02-23T14:01:36;12.35;;;5.50;;
66487;SDS011;53304;54.550;18.526;2023-02-23T14:04:04;8.57;;;4.82;;
66487;SDS011;53304;54.550;18.526;2023-02-23T14:06:36;11.25;;;4.90;;
66487;SDS011;53304;54.550;18.526;2023-02-23T14:09:07;9.45;;;4.57;;
66487;SDS011;53304;54.550;18.526;2023-02-23T14:12:01;10.52;;;5.20;;
66487;SDS011;53304;54.550;18.526;2023-02-23T14:22:17;11.05;;;5.22;;
66487;SDS011;53304;54.550;18.526;2023-02-23T14:24:45;11.75;;;5.07;;
66487;SDS011;53304;54.550;18.526;2023-02-23T14:30:11;12.02;;;5.15;;
66487;SDS011;53304;54.550;18.526;2023-02-23T14:32:43;10.25;;;5.47;;
66487;SDS011;53304;54.550;18.526;2023-02-23T14:38:00;11.73;;;5.03;;
66487;SDS011;53304;54.550;18.526;2023-02-23T14:40:32;10.95;;;5.20;;
66487;SDS011;53304;54.550;18.526;2023-02-23T14:43:02;10.40;;;4.93;;
66487;SDS011;53304;54.550;18.526;2023-02-23T14:45:29;10.20;;;4.93;;
66487;SDS011;53304;54.550;18.526;2023-02-23T14:48:05;9.00;;;5.07;;
66487;SDS011;53304;54.550;18.526;2023-02-23T14:50:36;8.63;;;5.03;;
66487;SDS011;53304;54.550;18.526;2023-02-23T14:53:04;11.32;;;5.68;;
66487;SDS011;53304;54.550;18.526;2023-02-23T14:55:33;9.02;;;5.30;;
66487;SDS011;53304;54.550;18.526;2023-02-23T14:58:02;10.10;;;5.25;;
66487;SDS011;53304;54.550;18.526;2023-02-23T15:00:29;9.20;;;5.22;;
66487;SDS011;53304;54.550;18.526;2023-02-23T15:05:36;8.55;;;4.65;;
66487;SDS011;53304;54.550;18.526;2023-02-23T15:08:06;7.93;;;5.10;;
66487;SDS011;53304;54.550;18.526;2023-02-23T15:10:37;9.65;;;5.45;;
66487;SDS011;53304;54.550;18.526;2023-02-23T15:13:11;8.73;;;4.78;;
66487;SDS011;53304;54.550;18.526;2023-02-23T15:15:45;8.68;;;5.03;;
66487;SDS011;53304;54.550;18.526;2023-02-23T15:18:16;11.23;;;5.07;;
66487;SDS011;53304;54.550;18.526;2023-02-23T15:20:48;9.48;;;5.15;;
66487;SDS011;53304;54.550;18.526;2023-02-23T15:23:14;11.73;;;5.10;;
66487;SDS011;53304;54.550;18.526;2023-02-23T15:25:42;9.68;;;4.88;;
66487;SDS011;53304;54.550;18.526;2023-02-23T15:28:25;9.18;;;5.00;;
66487;SDS011;53304;54.550;18.526;2023-02-23T15:30:59;11.65;;;5.40;;
66487;SDS011;53304;54.550;18.526;2023-02-23T15:33:26;10.38;;;5.20;;
66487;SDS011;53304;54.550;18.526;2023-02-23T15:38:41;9.38;;;5.15;;
66487;SDS011;53304;54.550;18.526;2023-02-23T15:41:12;10.10;;;5.10;;
66487;SDS011;53304;54.550;18.526;2023-02-23T15:43:47;9.38;;;4.85;;
66487;SDS011;53304;54.550;18.526;2023-02-23T15:46:20;9.50;;;5.00;;
66487;SDS011;53304;54.550;18.526;2023-02-23T15:48:51;10.10;;;5.32;;
66487;SDS011;53304;54.550;18.526;2023-02-23T15:52:06;9.27;;;5.18;;
66487;SDS011;53304;54.550;18.526;2023-02-23T15:57:07;9.75;;;5.45;;
66487;SDS011;53304;54.550;18.526;2023-02-23T15:59:44;9.52;;;5.05;;
66487;SDS011;53304;54.550;18.526;2023-02-23T16:02:14;10.00;;;5.50;;
66487;SDS011;53304;54.550;18.526;2023-02-23T16:04:44;9.82;;;5.40;;
66487;SDS011;53304;54.550;18.526;2023-02-23T16:07:23;9.82;;;5.47;;
66487;SDS011;53304;54.550;18.526;2023-02-23T16:12:30;10.07;;;5.50;;
66487;SDS011;53304;54.550;18.526;2023-02-23T16:14:59;10.63;;;5.35;;
66487;SDS011;53304;54.550;18.526;2023-02-23T16:22:54;10.35;;;5.43;;
66487;SDS011;53304;54.550;18.526;2023-02-23T16:25:20;9.90;;;5.63;;
66487;SDS011;53304;54.550;18.526;2023-02-23T16:27:52;10.27;;;5.90;;
66487;SDS011;53304;54.550;18.526;2023-02-23T16:30:49;9.90;;;5.28;;
66487;SDS011;53304;54.550;18.526;2023-02-23T16:33:21;9.25;;;5.18;;
66487;SDS011;53304;54.550;18.526;2023-02-23T16:38:55;9.45;;;5.53;;
66487;SDS011;53304;54.550;18.526;2023-02-23T16:41:24;9.57;;;5.67;;
66487;SDS011;53304;54.550;18.526;2023-02-23T16:43:52;9.77;;;5.68;;
66487;SDS011;53304;54.550;18.526;2023-02-23T16:46:19;11.38;;;5.72;;
66487;SDS011;53304;54.550;18.526;2023-02-23T16:48:50;12.43;;;5.82;;
66487;SDS011;53304;54.550;18.526;2023-02-23T16:51:17;11.50;;;5.50;;
66487;SDS011;53304;54.550;18.526;2023-02-23T16:53:44;11.15;;;6.13;;
66487;SDS011;53304;54.550;18.526;2023-02-23T16:56:13;11.65;;;6.03;;
66487;SDS011;53304;54.550;18.526;2023-02-23T16:58:42;11.98;;;5.38;;
66487;SDS011;53304;54.550;18.526;2023-02-23T17:01:10;9.50;;;5.75;;
66487;SDS011;53304;54.550;18.526;2023-02-23T17:03:39;10.90;;;5.78;;
66487;SDS011;53304;54.550;18.526;2023-02-23T17:06:06;11.73;;;6.15;;
66487;SDS011;53304;54.550;18.526;2023-02-23T17:08:31;11.85;;;5.80;;
66487;SDS011;53304;54.550;18.526;2023-02-23T17:10:58;11.65;;;6.18;;
66487;SDS011;53304;54.550;18.526;2023-02-23T17:13:25;11.20;;;6.15;;
66487;SDS011;53304;54.550;18.526;2023-02-23T17:15:57;11.93;;;6.57;;
66487;SDS011;53304;54.550;18.526;2023-02-23T17:18:28;11.75;;;5.95;;
66487;SDS011;53304;54.550;18.526;2023-02-23T17:20:56;11.20;;;6.07;;
66487;SDS011;53304;54.550;18.526;2023-02-23T17:23:23;9.70;;;5.93;;
66487;SDS011;53304;54.550;18.526;2023-02-23T17:25:51;12.07;;;6.20;;
66487;SDS011;53304;54.550;18.526;2023-02-23T17:28:19;11.02;;;6.15;;
66487;SDS011;53304;54.550;18.526;2023-02-23T17:30:47;9.32;;;5.78;;
66487;SDS011;53304;54.550;18.526;2023-02-23T17:33:13;9.75;;;5.50;;